Time;durP1;ratioP1;P1;durP2;ratioP2;P2;SDS_P1;SDS_P2;PMS_P1;PMS_P2;Temp;Humidity;BMP_temperature;BMP_pressure;BME280_temperature;BME280_humidity;BME280_pressure;Samples;Min_cycle;Max_cycle;Signal;HPM_P1;HPM_P2
2021/06/27 00:01:38;;;;;;;20.20;13.75;;;18.60;78.80;;;;;;6275852;22;20016;-85
2021/06/27 00:04:05;;;;;;;17.13;12.32;;;18.60;78.80;;;;;;6275941;22;20095;-84
2021/06/27 00:06:32;;;;;;;19.58;13.80;;;18.60;78.90;;;;;;6275993;22;20015;-85
2021/06/27 00:08:59;;;;;;;21.30;14.82;;;18.60;78.90;;;;;;6275306;22;20090;-84
2021/06/27 00:11:26;;;;;;;21.00;14.75;;;18.60;78.90;;;;;;6275829;22;20039;-85
2021/06/27 00:13:54;;;;;;;19.88;12.75;;;18.60;79.00;;;;;;6275333;22;20422;-84
2021/06/27 00:16:21;;;;;;;16.33;12.25;;;18.60;79.10;;;;;;6276211;22;20351;-85
2021/06/27 00:18:49;;;;;;;18.60;13.45;;;18.60;79.10;;;;;;6275166;22;20022;-85
2021/06/27 00:21:17;;;;;;;19.33;13.45;;;18.60;79.10;;;;;;6275372;22;20011;-84
2021/06/27 00:23:47;;;;;;;15.43;11.10;;;18.60;79.10;;;;;;6275600;22;20087;-85
2021/06/27 00:26:17;;;;;;;17.90;11.52;;;18.50;79.10;;;;;;6275820;22;20061;-84
2021/06/27 00:28:45;;;;;;;17.42;11.90;;;18.50;79.20;;;;;;6275151;22;20026;-84
2021/06/27 00:31:12;;;;;;;19.35;11.25;;;18.50;79.20;;;;;;6275718;22;20058;-86
2021/06/27 00:33:40;;;;;;;14.90;10.75;;;18.50;79.20;;;;;;6275804;22;20467;-85
2021/06/27 00:36:08;;;;;;;16.25;11.50;;;18.50;79.20;;;;;;6275544;22;20467;-84
2021/06/27 00:38:36;;;;;;;16.77;11.73;;;18.50;79.30;;;;;;6276672;22;20022;-85
2021/06/27 00:41:04;;;;;;;14.75;11.50;;;18.40;79.30;;;;;;6275524;22;20023;-84
2021/06/27 00:43:32;;;;;;;15.43;12.00;;;18.40;79.20;;;;;;6275741;22;20091;-85
2021/06/27 00:46:00;;;;;;;15.68;10.98;;;18.40;79.30;;;;;;6275304;22;20555;-85
2021/06/27 00:48:28;;;;;;;18.35;13.07;;;18.40;79.30;;;;;;6275345;22;20015;-86
2021/06/27 00:50:57;;;;;;;19.48;12.77;;;18.40;79.30;;;;;;6275186;22;20011;-86
2021/06/27 00:53:26;;;;;;;19.00;13.10;;;18.40;79.30;;;;;;6275167;22;20018;-84
2021/06/27 00:55:57;;;;;;;20.65;12.20;;;18.40;79.30;;;;;;6275171;22;20047;-85
2021/06/27 00:58:29;;;;;;;20.92;15.43;;;18.40;79.30;;;;;;6275532;22;20038;-85
2021/06/27 01:00:57;;;;;;;25.27;16.60;;;18.30;79.40;;;;;;6275076;22;20497;-85
2021/06/27 01:03:25;;;;;;;22.65;16.45;;;18.40;79.50;;;;;;6275015;22;20332;-86
2021/06/27 01:05:53;;;;;;;25.38;17.98;;;18.30;79.60;;;;;;6275369;22;20012;-86
2021/06/27 01:08:21;;;;;;;26.15;17.20;;;18.40;79.70;;;;;;6274999;22;20359;-85
2021/06/27 01:10:49;;;;;;;27.20;17.52;;;18.30;79.80;;;;;;6275104;22;20019;-86
2021/06/27 01:13:18;;;;;;;31.60;21.42;;;18.30;79.80;;;;;;6276839;22;20020;-84
2021/06/27 01:15:45;;;;;;;36.10;24.13;;;18.30;79.90;;;;;;6274948;22;20016;-85
2021/06/27 01:18:14;;;;;;;35.38;22.77;;;18.30;80.00;;;;;;6275304;22;20016;-85
2021/06/27 01:20:42;;;;;;;34.78;23.65;;;18.30;80.10;;;;;;6274818;22;20016;-85
2021/06/27 01:23:12;;;;;;;31.83;21.30;;;18.30;80.10;;;;;;6274633;22;20019;-84
2021/06/27 01:25:42;;;;;;;28.75;21.15;;;18.30;80.20;;;;;;6274880;22;20397;-85
2021/06/27 01:28:11;;;;;;;28.23;20.23;;;18.30;80.20;;;;;;6275124;22;20015;-86
2021/06/27 01:30:41;;;;;;;27.77;18.67;;;18.30;80.20;;;;;;6274873;22;20015;-86
2021/06/27 01:33:12;;;;;;;31.48;22.13;;;18.30;80.20;;;;;;6275106;22;20073;-85
2021/06/27 01:35:40;;;;;;;27.48;19.92;;;18.30;80.20;;;;;;6274637;22;20471;-84
2021/06/27 01:38:07;;;;;;;23.75;17.75;;;18.30;80.20;;;;;;6274415;22;20019;-84
2021/06/27 01:40:34;;;;;;;31.30;21.30;;;18.20;80.20;;;;;;6274654;22;20026;-85
2021/06/27 01:43:14;;;;;;;32.72;22.25;;;18.30;80.10;;;;;;6275106;22;20087;-84
2021/06/27 01:45:46;;;;;;;32.53;22.98;;;18.20;80.10;;;;;;6275985;22;20016;-85
2021/06/27 01:48:14;;;;;;;32.20;22.05;;;18.20;80.10;;;;;;6276510;22;20015;-85
2021/06/27 01:50:43;;;;;;;28.73;20.42;;;18.20;80.10;;;;;;6274320;22;20015;-85
2021/06/27 01:53:13;;;;;;;31.35;20.13;;;18.20;80.20;;;;;;6275130;22;20016;-86
2021/06/27 01:55:42;;;;;;;35.03;25.98;;;18.10;80.30;;;;;;6274470;22;20091;-85
2021/06/27 01:58:10;;;;;;;34.83;24.25;;;18.10;80.30;;;;;;6274252;22;20047;-85
2021/06/27 02:00:37;;;;;;;32.80;21.70;;;18.10;80.40;;;;;;6274480;22;20022;-85
2021/06/27 02:03:06;;;;;;;28.70;20.02;;;18.10;80.40;;;;;;6274565;22;20026;-85
2021/06/27 02:05:33;;;;;;;25.63;18.88;;;18.10;80.40;;;;;;6274306;22;20016;-85
2021/06/27 02:08:00;;;;;;;31.92;23.58;;;18.00;80.40;;;;;;6274548;22;20062;-85
2021/06/27 02:10:29;;;;;;;49.88;29.60;;;18.00;80.40;;;;;;6274546;22;20020;-86
2021/06/27 02:12:59;;;;;;;37.65;26.02;;;18.00;80.40;;;;;;6274945;22;20046;-85
2021/06/27 02:15:27;;;;;;;37.53;24.55;;;18.00;80.50;;;;;;6274514;22;20477;-87
2021/06/27 02:18:09;;;;;;;42.88;29.35;;;18.10;80.50;;;;;;6275026;22;20012;-86
2021/06/27 02:20:37;;;;;;;48.10;31.10;;;18.00;80.60;;;;;;6274155;22;20455;-85
2021/06/27 02:23:05;;;;;;;47.20;29.38;;;18.10;80.60;;;;;;6274486;22;20024;-86
2021/06/27 02:25:32;;;;;;;50.83;32.83;;;18.00;80.70;;;;;;6274832;22;20094;-85
2021/06/27 02:27:59;;;;;;;43.05;28.50;;;18.00;80.80;;;;;;6274352;22;20460;-87
2021/06/27 02:30:26;;;;;;;36.55;24.40;;;18.00;80.80;;;;;;6274567;22;20015;-86
2021/06/27 02:32:53;;;;;;;39.00;26.92;;;18.10;80.80;;;;;;6274687;22;20087;-85
2021/06/27 02:35:20;;;;;;;38.08;26.40;;;18.10;80.80;;;;;;6274185;22;20045;-85
2021/06/27 02:37:48;;;;;;;39.83;27.33;;;18.10;80.80;;;;;;6274524;22;20477;-87
2021/06/27 02:40:15;;;;;;;44.03;29.85;;;18.00;80.80;;;;;;6274475;22;20019;-86
2021/06/27 02:42:42;;;;;;;42.38;27.80;;;18.10;80.80;;;;;;6274324;22;20012;-85
2021/06/27 02:45:10;;;;;;;38.97;27.67;;;18.00;80.80;;;;;;6274601;22;20098;-85
2021/06/27 02:47:38;;;;;;;46.40;31.98;;;18.00;80.80;;;;;;6274370;22;20019;-86
2021/06/27 02:50:09;;;;;;;45.75;31.63;;;18.10;80.80;;;;;;6274754;22;20045;-86
2021/06/27 02:52:38;;;;;;;44.65;31.60;;;18.10;80.80;;;;;;6276458;22;20016;-85
2021/06/27 02:55:10;;;;;;;52.72;34.75;;;18.10;80.90;;;;;;6276430;22;20026;-86
2021/06/27 02:57:39;;;;;;;57.42;39.08;;;18.00;80.90;;;;;;6276171;22;20043;-87
2021/06/27 03:00:11;;;;;;;61.60;40.25;;;18.00;81.00;;;;;;6276185;22;20023;-86
2021/06/27 03:02:38;;;;;;;67.18;43.60;;;18.00;81.10;;;;;;6276229;22;20092;-84
2021/06/27 03:05:07;;;;;;;55.03;37.20;;;18.00;81.20;;;;;;6276123;22;20019;-84
2021/06/27 03:07:34;;;;;;;63.05;40.08;;;18.00;81.30;;;;;;6278286;22;20011;-85
2021/06/27 03:10:03;;;;;;;51.53;32.45;;;18.00;81.30;;;;;;6276529;22;20020;-85
2021/06/27 03:12:30;;;;;;;44.13;30.90;;;18.00;81.30;;;;;;6276518;22;20015;-85
2021/06/27 03:14:57;;;;;;;57.58;35.58;;;18.10;81.30;;;;;;6276168;22;20375;-87
2021/06/27 03:17:26;;;;;;;55.10;35.30;;;18.10;81.40;;;;;;6276100;22;20024;-87
2021/06/27 03:19:53;;;;;;;47.67;30.90;;;18.00;81.40;;;;;;6276308;22;20015;-86
2021/06/27 03:22:20;;;;;;;60.33;37.60;;;18.10;81.40;;;;;;6277572;22;20477;-85
2021/06/27 03:24:48;;;;;;;53.10;34.33;;;18.00;81.40;;;;;;6277363;22;20473;-86
2021/06/27 03:27:15;;;;;;;57.08;34.35;;;18.00;81.40;;;;;;6276007;22;20043;-86
2021/06/27 03:29:42;;;;;;;58.95;37.25;;;18.00;81.40;;;;;;6276328;22;20020;-85
2021/06/27 03:32:09;;;;;;;50.70;34.25;;;18.00;81.40;;;;;;6275660;22;20094;-86
2021/06/27 03:34:36;;;;;;;63.35;40.55;;;18.00;81.50;;;;;;6275852;22;20019;-86
2021/06/27 03:37:04;;;;;;;52.95;36.22;;;18.00;81.50;;;;;;6276004;22;20035;-86
2021/06/27 03:39:31;;;;;;;53.03;37.45;;;18.00;81.50;;;;;;6275618;22;20493;-87
2021/06/27 03:42:02;;;;;;;54.10;36.38;;;18.00;81.60;;;;;;6275897;22;20065;-89
2021/06/27 03:44:29;;;;;;;55.67;36.33;;;18.00;81.60;;;;;;6275696;22;20015;-88
2021/06/27 03:46:57;;;;;;;61.15;40.33;;;18.00;81.70;;;;;;6277573;22;20038;-86
2021/06/27 03:49:24;;;;;;;58.00;38.90;;;18.00;81.70;;;;;;6277584;22;20078;-87
2021/06/27 03:51:54;;;;;;;65.68;40.58;;;17.90;81.80;;;;;;6276338;22;20026;-88
2021/06/27 03:54:24;;;;;;;60.05;39.75;;;17.90;81.80;;;;;;6276167;22;20038;-88
2021/06/27 03:57:00;;;;;;;53.75;38.47;;;17.90;81.80;;;;;;6275923;22;20047;-87
2021/06/27 03:59:29;;;;;;;61.53;40.00;;;17.90;81.80;;;;;;6276094;22;20020;-88
2021/06/27 04:01:56;;;;;;;66.60;41.92;;;17.90;81.80;;;;;;6275531;22;20040;-88
2021/06/27 04:04:23;;;;;;;72.72;44.88;;;18.00;81.80;;;;;;6275936;22;20020;-87
2021/06/27 04:06:50;;;;;;;57.83;36.42;;;17.90;81.80;;;;;;6275707;22;20054;-89
2021/06/27 04:09:17;;;;;;;55.45;37.72;;;17.90;81.90;;;;;;6275963;22;20012;-84
2021/06/27 04:11:44;;;;;;;56.78;38.05;;;17.90;81.90;;;;;;6275666;22;20490;-87
2021/06/27 04:14:11;;;;;;;61.88;38.95;;;17.90;81.90;;;;;;6275880;22;20022;-86
2021/06/27 04:16:38;;;;;;;58.05;37.03;;;17.90;81.90;;;;;;6275198;22;20016;-86
2021/06/27 04:19:05;;;;;;;68.75;40.95;;;17.90;81.90;;;;;;6275846;22;20459;-86
2021/06/27 04:21:33;;;;;;;70.03;43.83;;;17.90;81.90;;;;;;6275435;22;20015;-85
2021/06/27 04:24:00;;;;;;;58.05;38.58;;;17.90;81.90;;;;;;6275580;22;20014;-85
2021/06/27 04:26:27;;;;;;;63.25;40.35;;;17.90;81.90;;;;;;6275379;22;20091;-85
2021/06/27 04:28:54;;;;;;;59.08;39.58;;;17.90;82.00;;;;;;6275355;22;20011;-85
2021/06/27 04:31:21;;;;;;;62.15;41.33;;;17.90;82.00;;;;;;6275084;22;20026;-85
2021/06/27 04:33:48;;;;;;;67.32;40.30;;;17.90;82.00;;;;;;6275453;22;20016;-86
2021/06/27 04:36:18;;;;;;;63.47;40.38;;;17.90;82.00;;;;;;6275319;22;20366;-85
2021/06/27 04:38:45;;;;;;;53.65;38.63;;;17.90;82.10;;;;;;6275804;22;20016;-86
2021/06/27 04:41:12;;;;;;;56.95;38.38;;;17.90;82.10;;;;;;6275243;22;20022;-86
2021/06/27 04:43:40;;;;;;;68.30;41.95;;;17.90;82.20;;;;;;6275373;22;20018;-87
2021/06/27 04:46:07;;;;;;;65.82;43.00;;;17.90;82.20;;;;;;6274947;22;20474;-88
2021/06/27 04:48:36;;;;;;;73.25;47.03;;;17.90;82.20;;;;;;6275560;22;20011;-85
2021/06/27 04:51:03;;;;;;;91.32;54.03;;;17.90;82.30;;;;;;6275454;22;20054;-86
2021/06/27 04:53:33;;;;;;;80.15;46.75;;;17.90;82.30;;;;;;6275560;22;20466;-90
2021/06/27 04:56:01;;;;;;;84.35;49.22;;;17.90;82.40;;;;;;6275255;22;20042;-89
2021/06/27 04:58:28;;;;;;;85.88;49.95;;;17.90;82.50;;;;;;6274698;22;20020;-88
2021/06/27 05:00:59;;;;;;;83.25;52.20;;;17.90;82.50;;;;;;6275036;22;20552;-86
2021/06/27 05:03:29;;;;;;;92.88;54.92;;;17.90;82.60;;;;;;6275412;22;20019;-89
2021/06/27 05:05:57;;;;;;;104.47;57.45;;;17.90;82.70;;;;;;6275249;22;20050;-88
2021/06/27 05:08:25;;;;;;;103.82;58.33;;;17.80;82.90;;;;;;6275232;22;20016;-86
2021/06/27 05:10:52;;;;;;;112.85;62.67;;;17.80;82.90;;;;;;6276306;22;20020;-88
2021/06/27 05:13:20;;;;;;;104.93;59.67;;;17.80;83.00;;;;;;6274273;22;20030;-88
2021/06/27 05:15:47;;;;;;;113.47;60.90;;;17.90;83.20;;;;;;6274849;22;20371;-87
2021/06/27 05:18:17;;;;;;;108.10;59.38;;;17.80;83.30;;;;;;6275230;22;20026;-87
2021/06/27 05:20:50;;;;;;;100.65;59.80;;;17.80;83.30;;;;;;6274666;22;20026;-86
2021/06/27 05:23:17;;;;;;;117.18;63.08;;;17.80;83.30;;;;;;6274896;22;20039;-87
2021/06/27 05:25:45;;;;;;;107.50;59.58;;;17.80;83.40;;;;;;6275075;22;20014;-87
2021/06/27 05:28:12;;;;;;;101.38;58.50;;;17.90;83.40;;;;;;6275008;22;20019;-86
2021/06/27 05:30:39;;;;;;;104.65;58.67;;;17.80;83.40;;;;;;6275043;22;20483;-87
2021/06/27 05:33:07;;;;;;;108.43;63.55;;;17.80;83.40;;;;;;6275001;22;20055;-87
2021/06/27 05:35:34;;;;;;;109.85;61.30;;;17.80;83.40;;;;;;6274757;22;20018;-88
2021/06/27 05:38:02;;;;;;;100.43;58.42;;;17.80;83.40;;;;;;6274872;22;20016;-86
2021/06/27 05:40:29;;;;;;;115.63;62.38;;;17.90;83.40;;;;;;6274937;22;20016;-87
2021/06/27 05:42:56;;;;;;;112.88;62.38;;;17.90;83.40;;;;;;6274534;22;20020;-87
2021/06/27 05:45:24;;;;;;;101.70;57.80;;;17.90;83.50;;;;;;6274655;22;20086;-85
2021/06/27 05:47:51;;;;;;;91.18;54.75;;;17.90;83.50;;;;;;6275195;22;20011;-86
2021/06/27 05:50:18;;;;;;;112.22;60.88;;;17.90;83.50;;;;;;6274782;22;20090;-86
2021/06/27 05:52:47;;;;;;;103.68;59.17;;;17.90;83.50;;;;;;6275087;22;20031;-87
2021/06/27 05:55:15;;;;;;;93.03;53.92;;;17.90;83.50;;;;;;6274610;22;20035;-86
2021/06/27 05:57:42;;;;;;;86.72;54.70;;;17.90;83.50;;;;;;6274352;22;20023;-87
2021/06/27 06:00:10;;;;;;;97.53;58.15;;;17.90;83.50;;;;;;6274685;22;20066;-87
2021/06/27 06:02:37;;;;;;;89.90;55.78;;;17.90;83.50;;;;;;6275027;22;20115;-87
2021/06/27 06:05:05;;;;;;;99.40;57.10;;;17.90;83.40;;;;;;6275046;22;20038;-87
2021/06/27 06:07:35;;;;;;;101.32;57.75;;;17.90;83.40;;;;;;6274576;22;20014;-87
2021/06/27 06:10:04;;;;;;;84.53;53.53;;;18.00;83.40;;;;;;6274573;22;20102;-87
2021/06/27 06:12:32;;;;;;;95.47;56.05;;;18.00;83.30;;;;;;6274245;22;20475;-87
2021/06/27 06:15:00;;;;;;;101.30;60.15;;;18.00;83.30;;;;;;6275047;22;20028;-87
2021/06/27 06:17:27;;;;;;;93.65;57.28;;;18.00;83.30;;;;;;6274739;22;20019;-87
2021/06/27 06:19:54;;;;;;;94.47;56.50;;;18.00;83.40;;;;;;6274602;22;20475;-87
2021/06/27 06:22:22;;;;;;;99.30;56.67;;;18.00;83.40;;;;;;6274671;22;20471;-86
2021/06/27 06:24:58;;;;;;;87.78;52.63;;;18.10;83.40;;;;;;6275655;22;20011;-88
2021/06/27 06:27:28;;;;;;;83.30;52.28;;;18.10;83.40;;;;;;6276289;22;20065;-86
2021/06/27 06:29:55;;;;;;;85.10;53.45;;;18.10;83.40;;;;;;6276779;22;20015;-88
2021/06/27 06:32:22;;;;;;;76.03;49.63;;;18.10;83.50;;;;;;6276849;22;20058;-87
2021/06/27 06:34:49;;;;;;;86.60;52.90;;;18.10;83.40;;;;;;6276475;22;20015;-87
2021/06/27 06:37:19;;;;;;;86.60;54.08;;;18.10;83.40;;;;;;6276515;22;20016;-87
2021/06/27 06:39:46;;;;;;;84.30;50.08;;;18.20;83.40;;;;;;6277060;22;20066;-87
2021/06/27 06:42:13;;;;;;;84.50;53.25;;;18.10;83.40;;;;;;6276206;22;20328;-87
2021/06/27 06:44:42;;;;;;;78.90;49.35;;;18.20;83.30;;;;;;6276418;22;20035;-87
2021/06/27 06:47:11;;;;;;;95.60;56.63;;;18.20;83.30;;;;;;6276372;22;20026;-86
2021/06/27 06:49:38;;;;;;;97.45;56.08;;;18.20;83.30;;;;;;6276235;22;20019;-86
2021/06/27 06:52:05;;;;;;;81.03;49.97;;;18.20;83.30;;;;;;6276330;22;20402;-85
2021/06/27 06:54:32;;;;;;;107.82;60.80;;;18.30;83.30;;;;;;6277606;22;20095;-85
2021/06/27 06:57:02;;;;;;;87.03;53.78;;;18.20;83.30;;;;;;6276304;22;20460;-85
2021/06/27 06:59:30;;;;;;;96.30;55.65;;;18.20;83.40;;;;;;6276013;22;20024;-85
2021/06/27 07:01:57;;;;;;;92.57;55.92;;;18.20;83.40;;;;;;6276366;22;20020;-83
2021/06/27 07:04:24;;;;;;;91.28;55.50;;;18.20;83.40;;;;;;6276199;22;20016;-85
2021/06/27 07:06:52;;;;;;;99.03;56.90;;;18.20;83.40;;;;;;6274626;22;20091;-84
2021/06/27 07:09:22;;;;;;;100.68;57.35;;;18.20;83.40;;;;;;6273872;22;20019;-85
2021/06/27 07:11:49;;;;;;;99.40;59.40;;;18.20;83.40;;;;;;6275373;22;20020;-85
2021/06/27 07:14:16;;;;;;;89.07;53.58;;;18.20;83.50;;;;;;6275034;22;20047;-85
2021/06/27 07:16:44;;;;;;;100.03;60.33;;;18.30;83.50;;;;;;6274613;22;20022;-85
2021/06/27 07:19:11;;;;;;;104.60;59.10;;;18.20;83.50;;;;;;6274896;22;20065;-85
2021/06/27 07:21:40;;;;;;;101.43;57.58;;;18.30;83.60;;;;;;6274753;22;20022;-85
2021/06/27 07:24:07;;;;;;;94.80;57.13;;;18.30;83.60;;;;;;6274391;22;20420;-85
2021/06/27 07:26:34;;;;;;;80.05;52.28;;;18.30;83.60;;;;;;6275181;22;20082;-85
2021/06/27 07:29:02;;;;;;;100.20;58.72;;;18.30;83.70;;;;;;6275004;22;20098;-85
2021/06/27 07:31:29;;;;;;;96.93;56.47;;;18.30;83.70;;;;;;6275170;22;20034;-86
2021/06/27 07:33:56;;;;;;;95.30;57.85;;;18.30;83.80;;;;;;6275034;22;20098;-86
2021/06/27 07:36:23;;;;;;;90.05;56.85;;;18.40;83.80;;;;;;6274430;22;20341;-86
2021/06/27 07:38:50;;;;;;;100.40;56.30;;;18.40;83.80;;;;;;6273973;22;20526;-86
2021/06/27 07:41:17;;;;;;;82.03;52.05;;;18.40;83.80;;;;;;6275056;22;20035;-85
2021/06/27 07:43:50;;;;;;;92.35;55.25;;;18.40;83.90;;;;;;6275011;22;20090;-87
2021/06/27 07:46:18;;;;;;;89.60;56.33;;;18.40;83.90;;;;;;6275687;22;20015;-84
2021/06/27 07:48:45;;;;;;;86.82;55.08;;;18.40;83.90;;;;;;6274499;22;20046;-87
2021/06/27 07:51:12;;;;;;;75.78;49.33;;;18.40;83.90;;;;;;6274901;22;20026;-85
2021/06/27 07:53:39;;;;;;;83.32;52.42;;;18.50;83.80;;;;;;6274050;22;20016;-86
2021/06/27 07:56:06;;;;;;;97.13;56.47;;;18.50;83.90;;;;;;6274799;22;20020;-87
2021/06/27 07:58:53;;;;;;;87.78;54.67;;;18.50;83.90;;;;;;6275213;22;20024;-86
2021/06/27 08:01:22;;;;;;;81.38;55.55;;;18.60;83.90;;;;;;6274064;22;20347;-86
2021/06/27 08:03:50;;;;;;;73.15;50.50;;;18.60;83.90;;;;;;6274858;22;20047;-88
2021/06/27 08:06:18;;;;;;;73.45;49.58;;;18.70;83.80;;;;;;6274717;22;20460;-85
2021/06/27 08:08:45;;;;;;;75.78;48.42;;;18.70;83.80;;;;;;6274260;22;20051;-87
2021/06/27 08:11:13;;;;;;;81.35;50.58;;;18.70;83.80;;;;;;6275038;22;20020;-84
2021/06/27 08:13:40;;;;;;;73.45;49.83;;;18.80;83.80;;;;;;6274957;22;20415;-89
2021/06/27 08:16:07;;;;;;;69.80;48.60;;;18.90;83.80;;;;;;6273920;22;20091;-86
2021/06/27 08:18:34;;;;;;;78.80;50.65;;;18.90;83.60;;;;;;6274666;22;20409;-87
2021/06/27 08:21:02;;;;;;;76.32;50.65;;;18.90;83.60;;;;;;6274743;22;20129;-88
2021/06/27 08:23:31;;;;;;;69.43;47.50;;;19.00;83.60;;;;;;6274091;22;20020;-86
2021/06/27 08:26:00;;;;;;;72.60;48.58;;;19.00;83.60;;;;;;6274473;22;20091;-86
2021/06/27 08:28:27;;;;;;;64.18;46.63;;;19.10;83.50;;;;;;6274586;22;20034;-87
2021/06/27 08:30:54;;;;;;;75.63;50.08;;;19.10;83.50;;;;;;6274201;22;20019;-87
2021/06/27 08:33:23;;;;;;;62.55;46.25;;;19.10;83.60;;;;;;6274902;22;20022;-87
2021/06/27 08:35:50;;;;;;;58.85;43.45;;;19.20;83.60;;;;;;6274383;22;20041;-89
2021/06/27 08:38:18;;;;;;;63.88;45.17;;;19.20;83.60;;;;;;6273857;22;20051;-89
2021/06/27 08:40:48;;;;;;;57.33;43.03;;;19.30;83.50;;;;;;6273975;22;20466;-89
2021/06/27 08:43:15;;;;;;;59.85;43.20;;;19.30;83.40;;;;;;6275366;22;20482;-88
2021/06/27 08:45:53;;;;;;;59.97;42.90;;;19.30;83.20;;;;;;6275721;22;20325;-87
2021/06/27 08:48:22;;;;;;;54.22;40.88;;;19.30;83.10;;;;;;6275606;22;20467;-86
2021/06/27 08:50:51;;;;;;;58.55;42.15;;;19.40;83.00;;;;;;6274948;22;20055;-85
2021/06/27 08:53:19;;;;;;;58.33;42.15;;;19.40;83.00;;;;;;6275324;22;20019;-85
2021/06/27 08:55:47;;;;;;;54.55;40.72;;;19.40;82.90;;;;;;6275228;22;20018;-85
2021/06/27 08:58:14;;;;;;;53.58;42.78;;;19.40;82.80;;;;;;6274937;22;20042;-86
2021/06/27 09:00:41;;;;;;;56.17;42.92;;;19.40;82.70;;;;;;6275203;22;20016;-85
2021/06/27 09:03:10;;;;;;;53.28;41.42;;;19.40;82.70;;;;;;6275299;22;20094;-86
2021/06/27 09:05:40;;;;;;;52.50;39.70;;;19.50;82.70;;;;;;6274645;22;20043;-86
2021/06/27 09:08:18;;;;;;;51.40;39.92;;;19.50;82.70;;;;;;6275345;22;20018;-85
2021/06/27 09:10:45;;;;;;;51.10;38.15;;;19.60;82.60;;;;;;6276465;22;20086;-85
2021/06/27 09:13:13;;;;;;;50.85;38.63;;;19.60;82.50;;;;;;6274834;22;20489;-86
2021/06/27 09:15:46;;;;;;;56.90;38.80;;;19.60;82.40;;;;;;6274783;22;20471;-87
2021/06/27 09:18:16;;;;;;;50.45;39.28;;;19.60;82.40;;;;;;6275286;22;20016;-86
2021/06/27 09:20:52;;;;;;;48.55;38.53;;;19.70;82.40;;;;;;6274847;22;20018;-86
2021/06/27 09:23:38;;;;;;;45.15;36.70;;;19.70;82.30;;;;;;6274986;22;20065;-87
2021/06/27 09:26:05;;;;;;;50.22;38.28;;;19.80;82.20;;;;;;6274773;22;20087;-86
2021/06/27 09:29:02;;;;;;;44.45;36.67;;;19.80;82.00;;;;;;6274857;22;20022;-86
2021/06/27 09:31:37;;;;;;;45.92;36.42;;;19.80;81.80;;;;;;6251873;22;20477;-89
2021/06/27 09:34:09;;;;;;;52.05;35.67;;;19.90;81.70;;;;;;6274828;22;20038;-87
2021/06/27 09:36:43;;;;;;;52.88;38.08;;;19.90;81.70;;;;;;6275051;22;20035;-86
2021/06/27 09:39:13;;;;;;;44.67;35.72;;;19.90;81.70;;;;;;6275131;22;20035;-87
2021/06/27 09:41:51;;;;;;;46.85;33.63;;;20.00;81.70;;;;;;6274872;22;20094;-86
2021/06/27 09:44:20;;;;;;;46.00;34.90;;;20.10;81.60;;;;;;6276181;22;20062;-87
2021/06/27 09:46:54;;;;;;;38.25;30.88;;;20.10;81.50;;;;;;6274814;22;20012;-87
2021/06/27 09:49:25;;;;;;;40.45;33.40;;;20.10;81.40;;;;;;6276302;22;20016;-87
2021/06/27 09:51:58;;;;;;;42.92;33.38;;;20.20;81.20;;;;;;6274693;22;20023;-86
2021/06/27 09:54:27;;;;;;;43.50;33.00;;;20.20;81.20;;;;;;6275402;22;20016;-86
2021/06/27 09:56:54;;;;;;;40.38;31.42;;;20.30;81.10;;;;;;6274932;22;20020;-86
2021/06/27 09:59:31;;;;;;;43.50;33.58;;;20.30;81.00;;;;;;6274311;22;20094;-87
2021/06/27 10:02:01;;;;;;;41.25;32.20;;;20.40;80.80;;;;;;6274594;22;20555;-86
2021/06/27 10:04:33;;;;;;;39.70;30.33;;;20.40;80.70;;;;;;6274788;22;20018;-87
2021/06/27 10:07:03;;;;;;;36.60;30.05;;;20.40;80.80;;;;;;6276004;22;20016;-87
2021/06/27 10:09:37;;;;;;;33.28;28.88;;;20.40;80.80;;;;;;6274615;22;20069;-88
2021/06/27 10:12:13;;;;;;;42.13;31.90;;;20.40;80.80;;;;;;6274696;22;20054;-86
2021/06/27 10:14:56;;;;;;;37.03;30.13;;;20.40;80.70;;;;;;6274983;22;20098;-86
2021/06/27 10:17:26;;;;;;;35.42;30.40;;;20.40;80.60;;;;;;6274703;22;20460;-87
2021/06/27 10:19:54;;;;;;;38.60;30.70;;;20.40;80.40;;;;;;6274920;22;20024;-86
2021/06/27 10:22:25;;;;;;;34.80;27.42;;;20.40;80.30;;;;;;6274464;22;20020;-87
2021/06/27 10:24:56;;;;;;;37.45;30.95;;;20.40;80.30;;;;;;6274909;22;20027;-86
2021/06/27 10:27:27;;;;;;;38.60;31.20;;;20.40;80.40;;;;;;6274602;22;20095;-87
2021/06/27 10:29:55;;;;;;;37.85;30.33;;;20.40;80.40;;;;;;6275052;22;20016;-87
2021/06/27 10:32:23;;;;;;;34.85;29.00;;;20.40;80.40;;;;;;6274043;22;20016;-87
2021/06/27 10:34:53;;;;;;;39.28;30.80;;;20.40;80.50;;;;;;6275839;22;20102;-87
2021/06/27 10:37:39;;;;;;;32.17;28.52;;;20.40;80.50;;;;;;6274331;22;20422;-87
2021/06/27 10:40:11;;;;;;;32.88;27.35;;;20.50;80.50;;;;;;6274564;22;20050;-87
2021/06/27 10:42:50;;;;;;;37.92;29.95;;;20.50;80.50;;;;;;6274738;22;20015;-86
2021/06/27 10:45:23;;;;;;;36.83;29.17;;;20.50;80.40;;;;;;6274517;22;20016;-88
2021/06/27 10:47:51;;;;;;;41.13;28.97;;;20.40;80.40;;;;;;6274326;22;20094;-87
2021/06/27 10:50:22;;;;;;;35.13;29.77;;;20.50;80.30;;;;;;6274310;22;20558;-87
2021/06/27 10:52:53;;;;;;;31.42;27.52;;;20.50;80.30;;;;;;6274532;22;20490;-88
2021/06/27 10:55:26;;;;;;;32.30;27.20;;;20.50;80.30;;;;;;6274551;22;20022;-88
2021/06/27 10:58:03;;;;;;;32.63;28.08;;;20.50;80.30;;;;;;6273265;22;20095;-86
2021/06/27 11:00:59;;;;;;;32.50;26.58;;;20.50;80.20;;;;;;6272673;22;20029;-86
2021/06/27 11:03:39;;;;;;;35.53;26.83;;;20.60;80.20;;;;;;6273564;22;20031;-84
2021/06/27 11:06:12;;;;;;;39.65;27.02;;;20.60;80.00;;;;;;6273280;22;20087;-85
2021/06/27 11:08:43;;;;;;;32.55;26.67;;;20.60;79.90;;;;;;6272520;22;20359;-86
2021/06/27 11:11:45;;;;;;;33.38;26.50;;;20.70;79.80;;;;;;6275277;22;20077;-88
2021/06/27 11:14:20;;;;;;;32.83;26.27;;;20.70;79.60;;;;;;6274841;22;20039;-87
2021/06/27 11:17:00;;;;;;;32.83;25.90;;;20.80;79.60;;;;;;6276571;22;20012;-86
2021/06/27 11:19:33;;;;;;;30.50;25.27;;;20.80;79.60;;;;;;6275251;22;20043;-90
2021/06/27 11:26:02;;;;;;;28.98;24.55;;;20.90;79.40;;;;;;6277106;22;20061;-87
2021/06/27 11:28:31;;;;;;;31.77;23.88;;;21.00;79.50;;;;;;6275510;22;20016;-89
2021/06/27 11:35:16;;;;;;;25.60;21.25;;;21.20;79.50;;;;;;6269901;22;20019;-90
2021/06/27 11:42:58;;;;;;;23.45;20.58;;;21.40;79.00;;;;;;6094822;23;20026;-89
2021/06/27 11:45:30;;;;;;;25.75;21.10;;;21.50;78.90;;;;;;6182601;23;20092;-91
2021/06/27 11:52:28;;;;;;;27.80;20.48;;;21.80;78.50;;;;;;6172155;23;20061;-88
2021/06/27 11:56:08;;;;;;;23.25;19.42;;;21.90;78.20;;;;;;6158769;23;20060;-90
2021/06/27 11:58:37;;;;;;;20.98;18.73;;;22.00;78.10;;;;;;6123155;23;20079;-89
2021/06/27 12:01:44;;;;;;;26.65;17.90;;;22.10;77.90;;;;;;6122877;23;20045;-89
2021/06/27 12:04:34;;;;;;;19.73;17.63;;;22.20;77.80;;;;;;6099144;23;20030;-88
2021/06/27 12:07:05;;;;;;;18.48;16.58;;;22.20;77.40;;;;;;6123130;23;20073;-88
2021/06/27 12:09:36;;;;;;;18.95;16.02;;;22.40;77.20;;;;;;6099125;23;20084;-88
2021/06/27 12:12:41;;;;;;;19.65;16.05;;;22.40;76.80;;;;;;6159766;23;20016;-89
2021/06/27 12:15:44;;;;;;;19.58;15.70;;;22.40;76.80;;;;;;6188367;23;20021;-92
2021/06/27 12:18:36;;;;;;;16.08;14.38;;;22.40;76.70;;;;;;6188959;23;20021;-90
2021/06/27 12:21:12;;;;;;;14.77;12.65;;;22.40;76.60;;;;;;6189645;23;20020;-86
2021/06/27 12:23:46;;;;;;;15.10;12.70;;;22.40;76.60;;;;;;6186984;23;20048;-87
2021/06/27 12:26:34;;;;;;;12.50;10.73;;;22.40;76.50;;;;;;6191093;23;20025;-86
2021/06/27 12:29:07;;;;;;;11.23;9.52;;;22.40;76.60;;;;;;6187087;23;20047;-87
2021/06/27 12:31:37;;;;;;;11.43;9.32;;;22.40;76.60;;;;;;6187215;23;20023;-88
2021/06/27 12:38:03;;;;;;;11.25;9.25;;;22.40;76.40;;;;;;6065388;23;20019;-89
2021/06/27 12:40:32;;;;;;;11.27;9.25;;;22.40;76.50;;;;;;6141921;23;20120;-90
2021/06/27 12:43:58;;;;;;;10.82;9.15;;;22.30;76.60;;;;;;6157596;23;20040;-91
2021/06/27 12:46:41;;;;;;;11.65;9.25;;;22.30;76.70;;;;;;6182352;23;20092;-88
2021/06/27 12:49:23;;;;;;;;;;;;;;;;;;;;;
2021/06/27 12:52:19;;;;;;;10.95;9.32;;;22.30;77.10;;;;;;6181893;23;20029;-87
2021/06/27 12:54:48;;;;;;;10.10;8.73;;;22.30;77.20;;;;;;6181920;23;20043;-87
2021/06/27 12:57:52;;;;;;;14.10;9.75;;;22.30;77.30;;;;;;6156900;23;20031;-87
2021/06/27 13:00:20;;;;;;;12.98;9.77;;;22.30;77.40;;;;;;6127254;23;20021;-86
2021/06/27 13:02:51;;;;;;;10.88;9.05;;;22.30;77.60;;;;;;6128372;23;20065;-89
2021/06/27 13:05:20;;;;;;;12.50;8.30;;;22.30;77.60;;;;;;6128277;23;20105;-87
2021/06/27 13:08:00;;;;;;;9.85;8.05;;;22.30;77.60;;;;;;6128616;23;20017;-89